• Join FlightAware (Why Join?)
  • Login
  • US Flag 
06:33PM EDT


 

Airport Tracker/Info


-or-


 

Live Flight TrackerFlight Track Log ✈ EJA810 ✈ 26-Jun-2013 ✈ KPWM - KSWF

Flight Track Log - Related Links

Times and Time Zones

All times are in EDT time to prevent confusion due to time zone crossing. See the EJA810 flight status page for this flight to view local times or setup timezone preferences in your user account.

Time Position Orientation Groundspeed Altitude Reporting Facility
EDT Latitude Longitude Course Direction KTS MPH feet Rate Location/Type
07:58AM 43.6692 -70.4594 259° West 227 261 5,600  Level Boston Center
07:59AM 43.6808 -70.5425 281° West 239 275 8,600 2,760 Climbing Boston Center
08:00AM 43.6950 -70.6311 282° West 250 288 11,200 2,820 Climbing Boston Center
08:01AM 43.7133 -70.7397 283° West 268 308 14,300 2,400 Climbing Boston Center
08:02AM 43.7106 -70.8489 268° West 268 308 16,100 900 Climbing Boston Center
08:03AM 43.6337 -71.0660 235° Southwest  Level FlightAware Approximate
08:03AM 43.6828 -70.9500 249° West 292 336 16,100  Level Boston Center
08:04AM 43.6169 -71.1987 259° West  Level FlightAware Approximate
08:04AM 43.6508 -71.0714 250° West 327 376 16,000  Level Boston Center
08:05AM 43.6253 -71.2067 255° West 333 383 16,100  Climbing Boston Center
08:06AM 43.6017 -71.3333 256° West 339 390 16,100  Level Boston Center
08:07AM 43.5778 -71.4600 255° West 339 390 16,100  Level Boston Center
08:08AM 43.5558 -71.5864 257° West 339 390 16,100  Level Boston Center
08:09AM 43.5339 -71.7128 257° West 339 390 16,100  Level Boston Center
08:10AM 43.5075 -71.8389 254° West 339 390 16,100  Level Boston Center
08:11AM 43.4517 -71.9197 226° Southwest 333 383 16,100  Level Boston Center
08:12AM 43.3750 -72.0117 221° Southwest 333 383 16,100  Level Boston Center
08:13AM 43.3064 -72.1006 223° Southwest 338 389 16,100  Level Boston Center
08:14AM 43.2378 -72.1836 221° Southwest 338 389 16,100  Level Boston Center
08:15AM 43.1692 -72.2692 222° Southwest 343 395 16,100  Level Boston Center
08:16AM 43.1069 -72.3461 222° Southwest 343 395 16,100  Level Boston Center
08:17AM 43.0381 -72.4317 222° Southwest 343 395 16,100  Level Boston Center
08:18AM 42.9694 -72.5167 222° Southwest 343 395 16,100  Level Boston Center
08:19AM 42.8983 -72.6044 222° Southwest 343 395 16,100  Level Boston Center
08:20AM 42.8275 -72.6892 221° Southwest 343 395 16,100  Level Boston Center
08:21AM 42.7583 -72.7739 222° Southwest 343 395 16,100  Level Boston Center
08:22AM 42.6914 -72.8581 223° Southwest 343 395 16,100 -420 Level Boston Center
08:23AM 42.6222 -72.9422 222° Southwest 343 395 15,300 -960 Descending Boston Center
08:24AM 42.5531 -73.0206 220° Southwest 330 380 14,200 -1,380 Descending Boston Center
08:25AM 42.4797 -73.1044 220° Southwest 330 380 12,600 -1,500 Descending Boston Center
08:26AM 42.4231 -73.1769 223° Southwest 324 373 11,300 -840 Descending Boston Center
08:27AM 42.3558 -73.2547 221° Southwest 304 350 11,000 -180 Descending Boston Center
08:28AM 42.3011 -73.3244 223° Southwest 299 344 11,000  Level Boston Center
08:29AM 42.2275 -73.4131 222° Southwest 309 356 11,000  Level Boston Center
08:30AM 42.1642 -73.4847 220° Southwest 314 361 11,000 -1,320 Level Boston Center
08:33AM 42.0333 -73.6500 223° Southwest 242 278 6,400 -1,980 Descending New York TRACON
08:34AM 41.9667 -73.7167 217° Southwest 252 290 4,100 -1,200 Descending New York TRACON
08:35AM 41.9167 -73.7667 217° Southwest 267 307 4,000 -60 Descending New York TRACON
08:36AM 41.8500 -73.8167 209° Southwest 266 306 4,000  Level New York TRACON
08:37AM 41.7833 -73.8833 217° Southwest 254 292 4,000  Level New York TRACON
08:38AM 41.7167 -73.9333 209° Southwest 250 288 4,000  Level New York TRACON
08:39AM 41.6667 -73.9667 206° Southwest 258 297 4,000 -420 Level New York TRACON
08:40AM 41.6000 -73.9833 191° South 227 261 3,200 -780 Descending New York TRACON
08:41AM 41.5500 -74.0000 194° South 207 238 2,500 -960 Descending New York TRACON
08:42AM 41.5167 -74.0500 228° Southwest 156 180 1,300 -1,200 Descending New York TRACON
08:44AM 41.5000 -74.1000 217° Southwest  Level FlightAware Approximate
08:51AM 41.5041 -74.1048 217° Southwest  Level Estimated
08:52AM 41.5000 -74.1000 217° Southwest  Level FlightAware Approximate